Twin Lakes, Idaho
Current Conditions -  °F | °C
As of 8:15 PM on Thursday 27 Nov 2014 (Local Time) from KCOE Reporting Station
Overcast Overcast  
Wind Chill: 10°   Ceiling: 3100
Heat Index: 10°   Visibility: 10mi
Dew Point:   Wind: 9mph
Humidity: 76%   Direction: 250°WSW
Pressure: 29.74"   Gusts: NA
Location:  47.8426°N, 116.907°W
Report Text: KCOE 280415Z AUTO 25008KT 10SM BKN031 OVC040 10/06 A2974 RMK AO1
Loading
Personal Weather Stations






























Interactive Weather Map New forecast layout! Learn more

10-Day Weather Forecast

Advertisements
Track Severe Weather on mobile